createdAt,value
2023-02-02T00:02:21.703Z,7.11
2023-02-02T00:05:19.742Z,7.07
2023-02-02T00:07:51.740Z,6.96
2023-02-02T00:11:06.109Z,7.13
2023-02-02T00:14:46.740Z,6.98
2023-02-02T00:17:23.332Z,6.78
2023-02-02T00:20:18.295Z,6.86
2023-02-02T00:23:07.091Z,6.88
2023-02-02T00:26:16.175Z,6.81
2023-02-02T00:28:57.082Z,6.82
2023-02-02T00:31:28.778Z,6.84
2023-02-02T00:34:12.073Z,6.95
2023-02-02T00:36:42.882Z,6.93
2023-02-02T00:39:26.952Z,6.91
2023-02-02T00:41:59.542Z,6.77
2023-02-02T00:45:12.326Z,6.81
2023-02-02T00:47:49.268Z,6.96
2023-02-02T00:50:19.854Z,7.04
2023-02-02T00:53:39.173Z,6.95
2023-02-02T00:56:37.993Z,6.87
2023-02-02T01:00:29.786Z,7.02
2023-02-02T01:03:24.959Z,7.11
2023-02-02T01:06:26.918Z,7.08
2023-02-02T01:09:05.957Z,6.90
2023-02-02T01:11:43.354Z,6.95
2023-02-02T01:14:34.356Z,7.06
2023-02-02T01:17:10.513Z,7.18
2023-02-02T01:19:44.823Z,7.18
2023-02-02T01:22:13.919Z,7.02
2023-02-02T01:25:34.894Z,7.02
2023-02-02T01:28:35.559Z,6.96
2023-02-02T01:31:47.846Z,6.85
2023-02-02T01:34:42.207Z,6.93
2023-02-02T01:37:32.160Z,6.95
2023-02-02T01:40:13.404Z,6.96
2023-02-02T01:43:23.162Z,7.02
2023-02-02T01:46:46.630Z,7.07
2023-02-02T01:49:19.926Z,7.03
2023-02-02T01:51:59.872Z,7.07
2023-02-02T01:54:52.006Z,7.18
2023-02-02T01:57:55.727Z,7.16
2023-02-02T02:00:33.211Z,7.07
2023-02-02T02:03:59.130Z,7.17
2023-02-02T02:07:01.102Z,6.95
2023-02-02T02:09:33.830Z,7.13
2023-02-02T02:12:29.079Z,6.77
2023-02-02T02:15:28.177Z,6.67
2023-02-02T02:19:13.667Z,6.96
2023-02-02T02:23:03.333Z,7.19
2023-02-02T02:27:08.917Z,6.97
2023-02-02T02:30:17.179Z,7.18
2023-02-02T02:34:24.576Z,7.17
2023-02-02T02:38:31.881Z,7.14
2023-02-02T02:41:41.372Z,7.19
2023-02-02T02:45:25.184Z,7.13
2023-02-02T02:48:23.700Z,7.08
2023-02-02T02:52:05.278Z,7.09
2023-02-02T02:54:59.456Z,7.21
2023-02-02T02:57:55.074Z,7.16
2023-02-02T03:01:00.007Z,7.16
2023-02-02T03:04:37.604Z,7.12
2023-02-02T03:08:04.274Z,7.12
2023-02-02T03:11:02.486Z,7.16
2023-02-02T03:13:44.010Z,7.26
2023-02-02T03:16:21.400Z,7.30
2023-02-02T03:19:43.402Z,7.24
2023-02-02T03:22:34.864Z,7.20
2023-02-02T03:25:50.340Z,7.19
2023-02-02T03:28:21.900Z,7.22
2023-02-02T03:31:29.850Z,7.09
2023-02-02T03:34:30.364Z,7.13
2023-02-02T03:37:55.739Z,7.16
2023-02-02T03:40:50.133Z,7.25
2023-02-02T03:44:21.988Z,7.00
2023-02-02T03:47:54.315Z,6.95
2023-02-02T03:50:29.966Z,6.90
2023-02-02T03:53:26.046Z,7.08
2023-02-02T03:56:07.285Z,7.06
2023-02-02T03:59:15.123Z,7.13
2023-02-02T04:01:58.568Z,7.16
2023-02-02T04:05:00.146Z,7.21
2023-02-02T04:07:51.723Z,7.29
2023-02-02T04:10:30.084Z,7.08
2023-02-02T04:13:31.907Z,7.03
2023-02-02T04:16:08.528Z,6.97
2023-02-02T04:19:12.995Z,7.03
2023-02-02T04:22:11.992Z,6.91
2023-02-02T04:25:43.603Z,6.91
2023-02-02T04:29:06.214Z,7.09
2023-02-02T04:32:47.787Z,7.12
2023-02-02T04:35:32.147Z,7.18
2023-02-02T04:38:13.321Z,7.18
2023-02-02T04:40:47.496Z,7.04
2023-02-02T04:43:42.028Z,7.08
2023-02-02T04:46:32.316Z,7.06
2023-02-02T04:49:10.732Z,7.00
2023-02-02T04:52:13.559Z,7.08
2023-02-02T04:54:44.922Z,6.93
2023-02-02T04:57:17.741Z,6.79
2023-02-02T05:00:26.673Z,6.75
2023-02-02T05:03:15.548Z,6.78
2023-02-02T05:06:15.562Z,6.55
2023-02-02T05:08:54.998Z,6.77
2023-02-02T05:11:46.818Z,6.84
2023-02-02T05:14:25.742Z,6.70
2023-02-02T05:17:00.136Z,6.80
2023-02-02T05:19:43.071Z,6.97
2023-02-02T05:22:14.119Z,7.13
2023-02-02T05:25:16.822Z,7.07
2023-02-02T05:28:01.048Z,7.15
2023-02-02T05:30:52.497Z,7.09
2023-02-02T05:33:42.968Z,7.22
2023-02-02T05:36:13.966Z,7.14
2023-02-02T05:39:10.947Z,7.09
2023-02-02T05:42:10.386Z,7.13
2023-02-02T05:44:57.983Z,6.92
2023-02-02T05:47:45.813Z,6.75
2023-02-02T05:50:19.601Z,6.77
2023-02-02T05:53:12.266Z,6.84
2023-02-02T05:55:55.260Z,6.77
2023-02-02T05:58:29.849Z,6.74
2023-02-02T06:01:18.625Z,6.82
2023-02-02T06:03:52.729Z,6.91
2023-02-02T06:07:22.112Z,6.92
2023-02-02T06:10:36.788Z,6.75
2023-02-02T06:13:45.915Z,6.68
2023-02-02T06:16:58.043Z,6.88
2023-02-02T06:19:32.055Z,7.03
2023-02-02T06:22:50.571Z,7.01
2023-02-02T06:25:28.021Z,6.85
2023-02-02T06:28:09.624Z,6.87
2023-02-02T06:32:08.127Z,6.83
2023-02-02T06:35:49.833Z,7.07
2023-02-02T06:39:21.621Z,7.08
2023-02-02T06:42:21.671Z,7.37
2023-02-02T06:45:31.648Z,7.24
2023-02-02T06:49:03.337Z,7.30
2023-02-02T06:52:02.329Z,7.23
2023-02-02T06:54:54.557Z,7.22
2023-02-02T06:58:00.346Z,7.38
2023-02-02T07:01:12.388Z,7.39
2023-02-02T07:04:07.242Z,7.49
2023-02-02T07:07:49.583Z,7.64
2023-02-02T07:11:13.663Z,7.54
2023-02-02T07:13:47.811Z,7.78
2023-02-02T07:17:09.207Z,7.93
2023-02-02T07:19:52.756Z,7.84
2023-02-02T07:22:52.714Z,8.03
2023-02-02T07:25:43.835Z,8.17
2023-02-02T07:29:03.070Z,8.10
2023-02-02T07:32:13.613Z,7.95
2023-02-02T07:34:42.644Z,7.80
2023-02-02T07:37:44.096Z,7.88
2023-02-02T07:40:47.254Z,7.63
2023-02-02T07:43:23.851Z,7.73
2023-02-02T07:46:08.307Z,7.84
2023-02-02T07:48:56.569Z,7.91
2023-02-02T07:51:38.257Z,8.00
2023-02-02T07:54:38.665Z,7.95
2023-02-02T07:57:07.695Z,7.89
2023-02-02T07:59:41.338Z,7.77
2023-02-02T08:02:35.180Z,7.71
2023-02-02T08:05:20.586Z,7.85
2023-02-02T08:07:53.980Z,8.03
2023-02-02T08:10:22.770Z,7.97
2023-02-02T08:13:11.540Z,8.05
2023-02-02T08:15:54.913Z,8.11
2023-02-02T08:18:44.070Z,8.14
2023-02-02T08:21:44.067Z,8.34
2023-02-02T08:24:12.798Z,7.45
2023-02-02T08:27:05.890Z,6.51
2023-02-02T08:29:52.911Z,6.56
2023-02-02T08:32:40.527Z,7.07
2023-02-02T08:35:37.476Z,7.57
2023-02-02T08:38:34.713Z,7.91
2023-02-02T08:41:09.699Z,8.20
2023-02-02T08:44:22.142Z,8.09
2023-02-02T08:47:03.971Z,8.21
2023-02-02T08:50:16.185Z,8.13
2023-02-02T08:53:20.443Z,8.09
2023-02-02T08:55:49.424Z,8.10
2023-02-02T08:58:37.581Z,8.18
2023-02-02T09:01:42.215Z,8.36
2023-02-02T09:05:24.873Z,8.00
2023-02-02T09:09:23.062Z,7.29
2023-02-02T09:12:34.361Z,8.03
2023-02-02T09:15:27.742Z,8.51
2023-02-02T09:17:58.734Z,8.56
2023-02-02T09:21:07.819Z,7.83
2023-02-02T09:25:00.027Z,7.06
2023-02-02T09:28:51.670Z,6.78
2023-02-02T09:32:34.512Z,8.09
2023-02-02T09:36:27.001Z,8.76
2023-02-02T09:40:09.601Z,8.98
2023-02-02T09:44:25.592Z,9.00
2023-02-02T09:48:26.932Z,7.50
2023-02-02T09:51:47.263Z,7.24
2023-02-02T09:55:24.999Z,8.45
2023-02-02T09:59:19.931Z,8.84
2023-02-02T10:03:00.969Z,9.00
2023-02-02T10:06:43.676Z,8.96
2023-02-02T10:10:08.930Z,8.62
2023-02-02T10:13:04.876Z,7.22
2023-02-02T10:16:32.784Z,6.75
2023-02-02T10:20:21.962Z,7.51
2023-02-02T10:22:55.597Z,8.33
2023-02-02T10:26:12.074Z,8.68
2023-02-02T10:30:06.158Z,9.05
2023-02-02T10:33:49.798Z,8.43
2023-02-02T10:37:52.763Z,7.47
2023-02-02T10:41:55.150Z,8.20
2023-02-02T10:46:01.624Z,8.90
2023-02-02T10:50:05.028Z,9.29
2023-02-02T10:53:34.811Z,8.71
2023-02-02T10:56:20.670Z,7.62
2023-02-02T10:59:20.375Z,7.02
2023-02-02T11:02:44.641Z,8.00
2023-02-02T11:06:11.987Z,8.78
2023-02-02T11:08:52.826Z,8.76
2023-02-02T11:12:02.788Z,8.77
2023-02-02T11:16:05.798Z,8.94
2023-02-02T11:19:05.853Z,8.86
2023-02-02T11:21:49.380Z,8.98
2023-02-02T11:24:46.640Z,8.91
2023-02-02T11:28:28.589Z,9.02
2023-02-02T11:32:21.459Z,9.20
2023-02-02T11:35:35.042Z,8.23
2023-02-02T11:38:17.794Z,7.11
2023-02-02T11:41:09.263Z,7.07
2023-02-02T11:43:59.962Z,7.77
2023-02-02T11:46:31.346Z,8.20
2023-02-02T11:49:13.087Z,8.45
2023-02-02T11:51:41.836Z,8.65
2023-02-02T11:54:26.243Z,8.77
2023-02-02T11:57:08.041Z,8.65
2023-02-02T11:59:45.556Z,8.58
2023-02-02T12:02:46.444Z,8.62
2023-02-02T12:05:44.234Z,8.75
2023-02-02T12:08:47.022Z,8.81
2023-02-02T12:12:15.099Z,8.95
2023-02-02T12:15:19.992Z,9.06
2023-02-02T12:17:57.523Z,8.99
2023-02-02T12:20:52.189Z,8.17
2023-02-02T12:23:59.620Z,7.07
2023-02-02T12:26:44.215Z,6.21
2023-02-02T12:30:05.349Z,6.03
2023-02-02T12:33:35.714Z,6.94
2023-02-02T12:36:28.975Z,7.63
2023-02-02T12:39:57.252Z,7.87
2023-02-02T12:43:05.048Z,8.12
2023-02-02T12:46:31.495Z,8.35
2023-02-02T12:50:04.380Z,8.32
2023-02-02T12:53:35.687Z,8.55
2023-02-02T12:56:16.879Z,8.71
2023-02-02T13:00:06.602Z,8.80
2023-02-02T13:03:05.325Z,8.95
2023-02-02T13:07:08.287Z,8.73
2023-02-02T13:10:13.011Z,7.23
2023-02-02T13:13:19.908Z,6.20
2023-02-02T13:16:14.641Z,6.40
2023-02-02T13:18:52.381Z,7.19
2023-02-02T13:21:23.531Z,7.46
2023-02-02T13:24:49.664Z,7.35
2023-02-02T13:27:52.721Z,7.50
2023-02-02T13:30:47.589Z,7.56
2023-02-02T13:33:35.909Z,7.60
2023-02-02T13:36:28.694Z,7.60
2023-02-02T13:39:01.417Z,7.68
2023-02-02T13:41:40.287Z,7.62
2023-02-02T13:44:41.680Z,7.68
2023-02-02T13:47:59.428Z,7.73
2023-02-02T13:50:30.908Z,7.70
2023-02-02T13:53:42.419Z,7.54
2023-02-02T13:57:41.679Z,7.46
2023-02-02T14:00:48.454Z,7.53
2023-02-02T14:03:46.634Z,7.35
2023-02-02T14:06:56.992Z,7.45
2023-02-02T14:09:38.269Z,7.45
2023-02-02T14:12:34.732Z,7.42
2023-02-02T14:15:32.106Z,7.47
2023-02-02T14:18:22.981Z,7.63
2023-02-02T14:21:01.697Z,7.72
2023-02-02T14:24:27.529Z,7.90
2023-02-02T14:27:22.306Z,8.04
2023-02-02T14:30:02.668Z,7.85
2023-02-02T14:32:47.022Z,7.92
2023-02-02T14:36:01.785Z,7.85
2023-02-02T14:39:12.040Z,7.87
2023-02-02T14:42:57.246Z,7.85
2023-02-02T14:46:48.326Z,7.70
2023-02-02T14:49:25.693Z,7.56
2023-02-02T14:52:03.036Z,7.43
2023-02-02T14:54:37.807Z,7.26
2023-02-02T14:57:27.725Z,7.35
2023-02-02T15:00:01.169Z,7.37
2023-02-02T15:02:37.140Z,7.33
2023-02-02T15:05:39.107Z,7.30
2023-02-02T15:08:23.207Z,7.14
2023-02-02T15:10:58.840Z,7.03
2023-02-02T15:14:09.461Z,7.06
2023-02-02T15:16:50.478Z,7.08
2023-02-02T15:19:32.439Z,7.00
2023-02-02T15:22:35.110Z,6.83
2023-02-02T15:25:42.164Z,6.84
2023-02-02T15:28:49.943Z,6.81
2023-02-02T15:32:01.474Z,6.69
2023-02-02T15:34:49.495Z,6.67
2023-02-02T15:37:27.180Z,6.69
2023-02-02T15:39:58.226Z,6.68
2023-02-02T15:42:53.509Z,6.78
2023-02-02T15:46:01.010Z,6.76
2023-02-02T15:48:31.631Z,6.74
2023-02-02T15:51:15.677Z,6.46
2023-02-02T15:54:22.039Z,6.50
2023-02-02T15:56:52.877Z,6.51
2023-02-02T15:59:29.225Z,6.56
2023-02-02T16:02:47.082Z,6.64
2023-02-02T16:06:10.151Z,6.72
2023-02-02T16:08:44.665Z,6.67
2023-02-02T16:11:24.086Z,6.81
2023-02-02T16:14:36.411Z,6.87
2023-02-02T16:17:32.635Z,6.81
2023-02-02T16:20:09.376Z,6.82
2023-02-02T16:22:37.991Z,6.79
2023-02-02T16:25:13.578Z,6.74
2023-02-02T16:27:55.622Z,6.73
2023-02-02T16:31:00.960Z,6.55
2023-02-02T16:34:06.100Z,6.38
2023-02-02T16:36:40.590Z,6.49
2023-02-02T16:39:34.621Z,6.46
2023-02-02T16:42:33.922Z,6.49
2023-02-02T16:46:11.655Z,6.59
2023-02-02T16:49:06.132Z,6.51
2023-02-02T16:51:44.323Z,6.51
2023-02-02T16:54:43.974Z,6.40
2023-02-02T16:57:47.941Z,6.27
2023-02-02T17:00:29.222Z,6.15
2023-02-02T17:03:19.106Z,6.22
2023-02-02T17:06:29.576Z,6.38
2023-02-02T17:09:36.076Z,6.49
2023-02-02T17:12:34.539Z,6.51
2023-02-02T17:15:42.325Z,6.47
2023-02-02T17:18:24.261Z,6.39
2023-02-02T17:21:04.307Z,6.35
2023-02-02T17:23:43.369Z,6.36
2023-02-02T17:26:28.808Z,6.25
2023-02-02T17:29:00.735Z,6.27
2023-02-02T17:31:35.693Z,6.14
2023-02-02T17:34:52.904Z,6.00
2023-02-02T17:37:26.186Z,5.85
2023-02-02T17:40:19.085Z,5.90
2023-02-02T17:43:10.784Z,5.74
2023-02-02T17:45:55.498Z,5.64
2023-02-02T17:48:30.043Z,5.43
2023-02-02T17:51:11.366Z,5.26
2023-02-02T17:53:58.141Z,5.38
2023-02-02T17:57:05.727Z,5.45
2023-02-02T18:00:03.803Z,5.29
2023-02-02T18:02:48.591Z,5.33
2023-02-02T18:05:29.268Z,5.51
2023-02-02T18:08:32.136Z,5.47
2023-02-02T18:11:00.810Z,5.29
2023-02-02T18:13:42.488Z,5.30
2023-02-02T18:16:38.923Z,5.27
2023-02-02T18:19:49.353Z,5.22
2023-02-02T18:22:40.800Z,5.31
2023-02-02T18:25:33.964Z,5.36
2023-02-02T18:28:09.278Z,5.47
2023-02-02T18:30:44.328Z,5.41
2023-02-02T18:33:58.741Z,5.41
2023-02-02T18:36:56.873Z,5.57
2023-02-02T18:39:44.865Z,5.65
2023-02-02T18:42:51.306Z,5.65
2023-02-02T18:46:05.047Z,5.65
2023-02-02T18:49:06.165Z,5.67
2023-02-02T18:51:47.852Z,5.59
2023-02-02T18:54:29.192Z,5.72
2023-02-02T18:57:14.123Z,5.80
2023-02-02T18:59:52.826Z,5.88
2023-02-02T19:02:50.076Z,5.87
2023-02-02T19:05:57.876Z,5.82
2023-02-02T19:09:06.391Z,5.85
2023-02-02T19:12:02.775Z,5.78
2023-02-02T19:14:39.648Z,5.85
2023-02-02T19:17:22.635Z,5.85
2023-02-02T19:20:06.984Z,5.93
2023-02-02T19:23:23.294Z,5.77
2023-02-02T19:25:55.847Z,5.62
2023-02-02T19:28:40.714Z,5.83
2023-02-02T19:31:28.566Z,5.87
2023-02-02T19:34:20.585Z,5.99
2023-02-02T19:36:52.645Z,6.08
2023-02-02T19:39:44.989Z,5.99
2023-02-02T19:42:26.997Z,5.97
2023-02-02T19:46:02.089Z,5.83
2023-02-02T19:48:39.320Z,5.88
2023-02-02T19:51:48.952Z,5.67
2023-02-02T19:54:28.080Z,5.78
2023-02-02T19:57:54.035Z,5.69
2023-02-02T20:00:54.260Z,5.85
2023-02-02T20:03:55.653Z,5.94
2023-02-02T20:06:43.109Z,5.87
2023-02-02T20:09:22.393Z,5.79
2023-02-02T20:11:53.790Z,5.88
2023-02-02T20:14:34.669Z,5.96
2023-02-02T20:17:29.355Z,5.77
2023-02-02T20:20:05.429Z,5.83
2023-02-02T20:22:50.378Z,5.94
2023-02-02T20:25:49.683Z,6.05
2023-02-02T20:28:48.777Z,6.10
2023-02-02T20:31:24.773Z,6.06
2023-02-02T20:34:30.196Z,5.97
2023-02-02T20:37:46.223Z,6.14
2023-02-02T20:40:48.955Z,6.24
2023-02-02T20:43:58.600Z,6.04
2023-02-02T20:46:36.070Z,6.17
2023-02-02T20:49:14.198Z,6.14
2023-02-02T20:51:44.931Z,6.18
2023-02-02T20:54:22.405Z,6.12
2023-02-02T20:56:56.842Z,6.01
2023-02-02T20:59:29.925Z,5.81
2023-02-02T21:02:01.162Z,5.79
2023-02-02T21:04:47.364Z,5.79
2023-02-02T21:07:31.743Z,5.73
2023-02-02T21:10:14.610Z,5.67
2023-02-02T21:12:43.766Z,5.68
2023-02-02T21:15:51.798Z,5.63
2023-02-02T21:18:34.079Z,5.57
2023-02-02T21:21:11.170Z,5.50
2023-02-02T21:23:52.270Z,5.44
2023-02-02T21:26:50.079Z,5.49
2023-02-02T21:29:33.076Z,5.47
2023-02-02T21:32:23.984Z,5.45
2023-02-02T21:35:15.591Z,5.50
2023-02-02T21:37:57.129Z,5.53
2023-02-02T21:40:48.517Z,5.57
2023-02-02T21:43:22.711Z,5.63
2023-02-02T21:46:08.064Z,5.74
2023-02-02T21:48:42.529Z,5.49
2023-02-02T21:52:18.230Z,5.47
2023-02-02T21:54:57.485Z,5.57
2023-02-02T21:57:43.491Z,5.58
2023-02-02T22:00:33.555Z,5.59
2023-02-02T22:03:33.205Z,5.65
2023-02-02T22:06:45.075Z,5.64
2023-02-02T22:09:39.491Z,5.56
2023-02-02T22:12:40.066Z,5.71
2023-02-02T22:15:29.696Z,5.83
2023-02-02T22:18:31.670Z,5.77
2023-02-02T22:21:00.868Z,5.71
2023-02-02T22:23:35.469Z,5.63
2023-02-02T22:26:52.123Z,5.71
2023-02-02T22:29:56.165Z,5.79
2023-02-02T22:32:51.104Z,5.79
2023-02-02T22:35:55.324Z,5.81
2023-02-02T22:38:52.469Z,5.81
2023-02-02T22:42:19.875Z,5.65
2023-02-02T22:44:59.989Z,5.84
2023-02-02T22:47:47.430Z,5.76
2023-02-02T22:50:51.528Z,5.81
2023-02-02T22:53:39.984Z,5.80
2023-02-02T22:56:09.068Z,5.87
2023-02-02T22:59:11.860Z,5.70
2023-02-02T23:01:48.946Z,5.76
2023-02-02T23:05:01.226Z,5.76
2023-02-02T23:07:56.901Z,5.68
2023-02-02T23:10:27.284Z,5.62
2023-02-02T23:12:58.643Z,5.62
2023-02-02T23:15:31.101Z,5.50
2023-02-02T23:18:02.653Z,5.36
2023-02-02T23:20:33.621Z,5.45
2023-02-02T23:23:25.099Z,5.47
2023-02-02T23:25:56.360Z,5.46
2023-02-02T23:28:24.918Z,5.27
2023-02-02T23:30:59.251Z,5.44
2023-02-02T23:33:31.319Z,5.38
2023-02-02T23:36:15.364Z,5.52
2023-02-02T23:38:44.050Z,5.65
2023-02-02T23:41:15.913Z,5.74
2023-02-02T23:43:47.580Z,5.42
2023-02-02T23:46:28.267Z,5.44
2023-02-02T23:49:03.774Z,5.47
2023-02-02T23:51:35.223Z,5.57
2023-02-02T23:54:09.849Z,5.60
2023-02-02T23:56:49.614Z,5.52
2023-02-02T23:59:32.397Z,5.28
